sensor_id;sensor_type;location;lat;lon;timestamp;P1;durP1;ratioP1;P2;durP2;ratioP2
9222;SDS011;7557;51.698;3.942;2024-02-21T00:01:43;817.33;;;768.50;;
9222;SDS011;7557;51.698;3.942;2024-02-21T00:04:11;693.80;;;660.30;;
9222;SDS011;7557;51.698;3.942;2024-02-21T00:06:38;696.47;;;661.77;;
9222;SDS011;7557;51.698;3.942;2024-02-21T00:09:06;681.00;;;648.50;;
9222;SDS011;7557;51.698;3.942;2024-02-21T00:11:34;698.13;;;665.87;;
9222;SDS011;7557;51.698;3.942;2024-02-21T00:14:03;727.63;;;692.57;;
9222;SDS011;7557;51.698;3.942;2024-02-21T00:16:32;714.07;;;679.27;;
9222;SDS011;7557;51.698;3.942;2024-02-21T00:18:59;788.70;;;746.23;;
9222;SDS011;7557;51.698;3.942;2024-02-21T00:21:27;680.90;;;650.20;;
9222;SDS011;7557;51.698;3.942;2024-02-21T00:23:54;685.40;;;654.23;;
9222;SDS011;7557;51.698;3.942;2024-02-21T00:26:22;669.67;;;639.07;;
9222;SDS011;7557;51.698;3.942;2024-02-21T00:28:51;720.87;;;685.90;;
9222;SDS011;7557;51.698;3.942;2024-02-21T00:31:18;700.63;;;668.03;;
9222;SDS011;7557;51.698;3.942;2024-02-21T00:33:47;734.43;;;697.90;;
9222;SDS011;7557;51.698;3.942;2024-02-21T00:36:15;729.07;;;692.63;;
9222;SDS011;7557;51.698;3.942;2024-02-21T00:38:43;708.27;;;674.73;;
9222;SDS011;7557;51.698;3.942;2024-02-21T00:41:11;652.17;;;623.73;;
9222;SDS011;7557;51.698;3.942;2024-02-21T00:43:39;715.83;;;682.10;;
9222;SDS011;7557;51.698;3.942;2024-02-21T00:46:07;697.80;;;666.60;;
9222;SDS011;7557;51.698;3.942;2024-02-21T00:48:35;691.90;;;659.33;;
9222;SDS011;7557;51.698;3.942;2024-02-21T00:51:04;657.93;;;629.30;;
9222;SDS011;7557;51.698;3.942;2024-02-21T00:53:31;618.27;;;592.13;;
9222;SDS011;7557;51.698;3.942;2024-02-21T00:55:59;689.13;;;657.73;;
9222;SDS011;7557;51.698;3.942;2024-02-21T00:58:26;742.73;;;706.63;;
9222;SDS011;7557;51.698;3.942;2024-02-21T01:00:54;694.60;;;662.13;;
9222;SDS011;7557;51.698;3.942;2024-02-21T01:03:22;677.67;;;647.70;;
9222;SDS011;7557;51.698;3.942;2024-02-21T01:05:49;679.77;;;648.70;;
9222;SDS011;7557;51.698;3.942;2024-02-21T01:08:19;737.47;;;702.10;;
9222;SDS011;7557;51.698;3.942;2024-02-21T01:10:46;702.73;;;669.90;;
9222;SDS011;7557;51.698;3.942;2024-02-21T01:13:14;667.67;;;637.97;;
9222;SDS011;7557;51.698;3.942;2024-02-21T01:15:42;681.93;;;650.97;;
9222;SDS011;7557;51.698;3.942;2024-02-21T01:18:09;705.10;;;672.43;;
9222;SDS011;7557;51.698;3.942;2024-02-21T01:20:37;613.77;;;586.83;;
9222;SDS011;7557;51.698;3.942;2024-02-21T01:23:04;702.60;;;670.13;;
9222;SDS011;7557;51.698;3.942;2024-02-21T01:25:34;664.47;;;634.60;;
9222;SDS011;7557;51.698;3.942;2024-02-21T01:28:01;689.60;;;658.27;;
9222;SDS011;7557;51.698;3.942;2024-02-21T01:30:29;667.33;;;636.03;;
9222;SDS011;7557;51.698;3.942;2024-02-21T01:32:56;644.20;;;616.63;;
9222;SDS011;7557;51.698;3.942;2024-02-21T01:35:24;679.23;;;648.83;;
9222;SDS011;7557;51.698;3.942;2024-02-21T01:37:52;687.80;;;656.03;;
9222;SDS011;7557;51.698;3.942;2024-02-21T01:40:20;692.90;;;660.73;;
9222;SDS011;7557;51.698;3.942;2024-02-21T01:42:49;709.47;;;673.83;;
9222;SDS011;7557;51.698;3.942;2024-02-21T01:45:19;675.13;;;644.20;;
9222;SDS011;7557;51.698;3.942;2024-02-21T01:47:46;687.93;;;656.87;;
9222;SDS011;7557;51.698;3.942;2024-02-21T01:50:15;654.67;;;625.30;;
9222;SDS011;7557;51.698;3.942;2024-02-21T01:52:43;703.87;;;671.43;;
9222;SDS011;7557;51.698;3.942;2024-02-21T01:55:13;676.23;;;645.67;;
9222;SDS011;7557;51.698;3.942;2024-02-21T01:57:41;662.87;;;633.90;;
9222;SDS011;7557;51.698;3.942;2024-02-21T02:00:13;672.67;;;641.77;;
9222;SDS011;7557;51.698;3.942;2024-02-21T02:02:42;662.50;;;632.57;;
9222;SDS011;7557;51.698;3.942;2024-02-21T02:05:11;685.93;;;654.40;;
9222;SDS011;7557;51.698;3.942;2024-02-21T02:07:39;660.67;;;631.67;;
9222;SDS011;7557;51.698;3.942;2024-02-21T02:10:07;685.47;;;655.00;;
9222;SDS011;7557;51.698;3.942;2024-02-21T02:12:35;624.17;;;596.83;;
9222;SDS011;7557;51.698;3.942;2024-02-21T02:15:03;661.17;;;632.27;;
9222;SDS011;7557;51.698;3.942;2024-02-21T02:17:32;721.60;;;687.33;;
9222;SDS011;7557;51.698;3.942;2024-02-21T02:20:00;636.73;;;608.83;;
9222;SDS011;7557;51.698;3.942;2024-02-21T02:22:30;685.30;;;654.40;;
9222;SDS011;7557;51.698;3.942;2024-02-21T02:25:03;662.03;;;632.70;;
9222;SDS011;7557;51.698;3.942;2024-02-21T02:27:31;688.27;;;656.53;;
9222;SDS011;7557;51.698;3.942;2024-02-21T02:29:59;643.53;;;615.63;;
9222;SDS011;7557;51.698;3.942;2024-02-21T02:32:26;687.77;;;656.10;;
9222;SDS011;7557;51.698;3.942;2024-02-21T02:34:54;677.40;;;647.63;;
9222;SDS011;7557;51.698;3.942;2024-02-21T02:37:22;704.67;;;672.67;;
9222;SDS011;7557;51.698;3.942;2024-02-21T02:39:49;706.23;;;674.47;;
9222;SDS011;7557;51.698;3.942;2024-02-21T02:42:18;696.17;;;663.50;;
9222;SDS011;7557;51.698;3.942;2024-02-21T02:44:47;644.90;;;615.80;;
9222;SDS011;7557;51.698;3.942;2024-02-21T02:47:15;690.67;;;658.57;;
9222;SDS011;7557;51.698;3.942;2024-02-21T02:49:43;779.23;;;741.17;;
9222;SDS011;7557;51.698;3.942;2024-02-21T02:52:10;695.23;;;662.50;;
9222;SDS011;7557;51.698;3.942;2024-02-21T02:54:38;681.43;;;651.20;;
9222;SDS011;7557;51.698;3.942;2024-02-21T02:57:05;713.30;;;679.73;;
9222;SDS011;7557;51.698;3.942;2024-02-21T02:59:35;677.80;;;645.27;;
9222;SDS011;7557;51.698;3.942;2024-02-21T03:02:02;711.23;;;677.97;;
9222;SDS011;7557;51.698;3.942;2024-02-21T03:04:30;668.87;;;638.87;;
9222;SDS011;7557;51.698;3.942;2024-02-21T03:06:57;702.00;;;668.03;;
9222;SDS011;7557;51.698;3.942;2024-02-21T03:09:25;705.10;;;672.40;;
9222;SDS011;7557;51.698;3.942;2024-02-21T03:11:53;714.97;;;681.43;;
9222;SDS011;7557;51.698;3.942;2024-02-21T03:14:27;688.77;;;656.70;;
9222;SDS011;7557;51.698;3.942;2024-02-21T03:16:56;736.40;;;700.73;;
9222;SDS011;7557;51.698;3.942;2024-02-21T03:19:24;788.63;;;747.87;;
9222;SDS011;7557;51.698;3.942;2024-02-21T03:21:53;700.40;;;667.93;;
9222;SDS011;7557;51.698;3.942;2024-02-21T03:24:21;730.27;;;695.33;;
9222;SDS011;7557;51.698;3.942;2024-02-21T03:26:48;730.23;;;694.60;;
9222;SDS011;7557;51.698;3.942;2024-02-21T03:29:16;765.07;;;726.10;;
9222;SDS011;7557;51.698;3.942;2024-02-21T03:31:44;678.27;;;647.93;;
9222;SDS011;7557;51.698;3.942;2024-02-21T03:34:13;712.27;;;678.73;;
9222;SDS011;7557;51.698;3.942;2024-02-21T03:36:40;725.63;;;690.53;;
9222;SDS011;7557;51.698;3.942;2024-02-21T03:39:08;705.80;;;671.30;;
9222;SDS011;7557;51.698;3.942;2024-02-21T03:41:35;723.20;;;687.73;;
9222;SDS011;7557;51.698;3.942;2024-02-21T03:44:03;718.90;;;683.47;;
9222;SDS011;7557;51.698;3.942;2024-02-21T03:46:31;760.50;;;723.00;;
9222;SDS011;7557;51.698;3.942;2024-02-21T03:48:59;711.00;;;675.80;;
9222;SDS011;7557;51.698;3.942;2024-02-21T03:51:28;739.07;;;700.77;;
9222;SDS011;7557;51.698;3.942;2024-02-21T03:53:55;714.73;;;681.87;;
9222;SDS011;7557;51.698;3.942;2024-02-21T03:56:23;767.93;;;728.17;;
9222;SDS011;7557;51.698;3.942;2024-02-21T03:58:51;753.13;;;714.57;;
9222;SDS011;7557;51.698;3.942;2024-02-21T04:01:18;715.53;;;680.17;;
9222;SDS011;7557;51.698;3.942;2024-02-21T04:03:46;758.93;;;720.07;;
9222;SDS011;7557;51.698;3.942;2024-02-21T04:06:13;768.47;;;728.63;;
9222;SDS011;7557;51.698;3.942;2024-02-21T04:08:42;729.10;;;691.83;;
9222;SDS011;7557;51.698;3.942;2024-02-21T04:11:10;757.93;;;720.43;;
9222;SDS011;7557;51.698;3.942;2024-02-21T04:13:37;730.63;;;694.00;;
9222;SDS011;7557;51.698;3.942;2024-02-21T04:16:05;774.63;;;734.70;;
9222;SDS011;7557;51.698;3.942;2024-02-21T04:18:32;760.97;;;722.20;;
9222;SDS011;7557;51.698;3.942;2024-02-21T04:21:00;784.70;;;743.70;;
9222;SDS011;7557;51.698;3.942;2024-02-21T04:23:27;810.43;;;767.07;;
9222;SDS011;7557;51.698;3.942;2024-02-21T04:25:56;743.97;;;705.53;;
9222;SDS011;7557;51.698;3.942;2024-02-21T04:28:24;740.33;;;700.63;;
9222;SDS011;7557;51.698;3.942;2024-02-21T04:30:52;814.53;;;770.43;;
9222;SDS011;7557;51.698;3.942;2024-02-21T04:33:19;717.77;;;681.27;;
9222;SDS011;7557;51.698;3.942;2024-02-21T04:35:47;772.87;;;731.70;;
9222;SDS011;7557;51.698;3.942;2024-02-21T04:38:15;736.87;;;699.77;;
9222;SDS011;7557;51.698;3.942;2024-02-21T04:40:42;829.07;;;783.83;;
9222;SDS011;7557;51.698;3.942;2024-02-21T04:43:11;725.77;;;690.80;;
9222;SDS011;7557;51.698;3.942;2024-02-21T04:45:39;835.07;;;788.23;;
9222;SDS011;7557;51.698;3.942;2024-02-21T04:48:06;850.37;;;800.87;;
9222;SDS011;7557;51.698;3.942;2024-02-21T04:50:34;833.00;;;785.13;;
9222;SDS011;7557;51.698;3.942;2024-02-21T04:53:02;836.23;;;789.77;;
9222;SDS011;7557;51.698;3.942;2024-02-21T04:55:29;848.00;;;799.67;;
9222;SDS011;7557;51.698;3.942;2024-02-21T04:57:57;799.80;;;756.60;;
9222;SDS011;7557;51.698;3.942;2024-02-21T05:00:29;940.17;;;877.45;;
9222;SDS011;7557;51.698;3.942;2024-02-21T05:02:56;905.63;;;853.07;;
9222;SDS011;7557;51.698;3.942;2024-02-21T05:05:24;827.07;;;781.50;;
9222;SDS011;7557;51.698;3.942;2024-02-21T05:07:51;785.07;;;739.47;;
9222;SDS011;7557;51.698;3.942;2024-02-21T05:10:19;829.63;;;782.87;;
9222;SDS011;7557;51.698;3.942;2024-02-21T05:12:46;772.67;;;733.37;;
9222;SDS011;7557;51.698;3.942;2024-02-21T05:15:14;793.23;;;749.63;;
9222;SDS011;7557;51.698;3.942;2024-02-21T05:17:43;814.53;;;769.90;;
9222;SDS011;7557;51.698;3.942;2024-02-21T05:20:11;867.03;;;807.27;;
9222;SDS011;7557;51.698;3.942;2024-02-21T05:22:39;848.10;;;801.07;;
9222;SDS011;7557;51.698;3.942;2024-02-21T05:25:07;803.10;;;758.20;;
9222;SDS011;7557;51.698;3.942;2024-02-21T05:27:35;788.30;;;743.80;;
9222;SDS011;7557;51.698;3.942;2024-02-21T05:30:04;769.97;;;730.27;;
9222;SDS011;7557;51.698;3.942;2024-02-21T05:32:33;708.70;;;673.17;;
9222;SDS011;7557;51.698;3.942;2024-02-21T05:35:02;789.87;;;748.77;;
9222;SDS011;7557;51.698;3.942;2024-02-21T05:37:33;798.93;;;754.73;;
9222;SDS011;7557;51.698;3.942;2024-02-21T05:40:00;805.77;;;762.20;;
9222;SDS011;7557;51.698;3.942;2024-02-21T05:42:28;795.97;;;752.20;;
9222;SDS011;7557;51.698;3.942;2024-02-21T05:44:56;755.17;;;713.03;;
9222;SDS011;7557;51.698;3.942;2024-02-21T05:47:23;772.40;;;731.10;;
9222;SDS011;7557;51.698;3.942;2024-02-21T05:49:51;711.43;;;675.80;;
9222;SDS011;7557;51.698;3.942;2024-02-21T05:52:21;805.70;;;761.27;;
9222;SDS011;7557;51.698;3.942;2024-02-21T05:54:49;790.93;;;744.60;;
9222;SDS011;7557;51.698;3.942;2024-02-21T05:57:17;709.90;;;671.63;;
9222;SDS011;7557;51.698;3.942;2024-02-21T05:59:44;820.70;;;773.70;;
9222;SDS011;7557;51.698;3.942;2024-02-21T06:02:12;769.43;;;727.90;;
9222;SDS011;7557;51.698;3.942;2024-02-21T06:04:41;812.10;;;767.10;;
9222;SDS011;7557;51.698;3.942;2024-02-21T06:07:09;801.63;;;755.20;;
9222;SDS011;7557;51.698;3.942;2024-02-21T06:09:38;876.70;;;821.33;;
9222;SDS011;7557;51.698;3.942;2024-02-21T06:12:06;841.73;;;793.33;;
9222;SDS011;7557;51.698;3.942;2024-02-21T06:14:34;866.60;;;815.93;;
9222;SDS011;7557;51.698;3.942;2024-02-21T06:17:02;805.87;;;762.43;;
9222;SDS011;7557;51.698;3.942;2024-02-21T06:19:30;865.70;;;815.00;;
9222;SDS011;7557;51.698;3.942;2024-02-21T06:21:59;837.93;;;790.87;;
9222;SDS011;7557;51.698;3.942;2024-02-21T06:24:26;819.47;;;772.80;;
9222;SDS011;7557;51.698;3.942;2024-02-21T06:26:56;798.13;;;755.80;;
9222;SDS011;7557;51.698;3.942;2024-02-21T06:29:23;836.10;;;789.03;;
9222;SDS011;7557;51.698;3.942;2024-02-21T06:31:50;782.30;;;739.50;;
9222;SDS011;7557;51.698;3.942;2024-02-21T06:34:18;804.27;;;761.60;;
9222;SDS011;7557;51.698;3.942;2024-02-21T06:36:45;834.00;;;785.87;;
9222;SDS011;7557;51.698;3.942;2024-02-21T06:39:13;827.30;;;782.30;;
9222;SDS011;7557;51.698;3.942;2024-02-21T06:41:40;804.53;;;759.50;;
9222;SDS011;7557;51.698;3.942;2024-02-21T06:44:09;800.30;;;754.27;;
9222;SDS011;7557;51.698;3.942;2024-02-21T06:46:37;865.93;;;815.80;;
9222;SDS011;7557;51.698;3.942;2024-02-21T06:49:04;868.70;;;817.87;;
9222;SDS011;7557;51.698;3.942;2024-02-21T06:51:32;852.10;;;795.17;;
9222;SDS011;7557;51.698;3.942;2024-02-21T06:53:59;869.10;;;817.43;;
9222;SDS011;7557;51.698;3.942;2024-02-21T06:56:27;871.73;;;817.13;;
9222;SDS011;7557;51.698;3.942;2024-02-21T06:58:55;864.43;;;813.63;;
9222;SDS011;7557;51.698;3.942;2024-02-21T07:01:24;884.43;;;834.83;;
9222;SDS011;7557;51.698;3.942;2024-02-21T07:03:51;791.40;;;747.00;;
9222;SDS011;7557;51.698;3.942;2024-02-21T07:06:19;831.27;;;784.47;;
9222;SDS011;7557;51.698;3.942;2024-02-21T07:08:47;828.87;;;782.10;;
9222;SDS011;7557;51.698;3.942;2024-02-21T07:11:14;886.27;;;835.23;;
9222;SDS011;7557;51.698;3.942;2024-02-21T07:13:42;802.00;;;757.03;;
9222;SDS011;7557;51.698;3.942;2024-02-21T07:16:09;860.03;;;806.87;;
9222;SDS011;7557;51.698;3.942;2024-02-21T07:18:39;838.97;;;790.97;;
9222;SDS011;7557;51.698;3.942;2024-02-21T07:21:09;884.63;;;833.57;;
9222;SDS011;7557;51.698;3.942;2024-02-21T07:23:40;862.63;;;813.03;;
9222;SDS011;7557;51.698;3.942;2024-02-21T07:26:08;802.70;;;757.47;;
9222;SDS011;7557;51.698;3.942;2024-02-21T07:28:35;938.83;;;870.70;;
9222;SDS011;7557;51.698;3.942;2024-02-21T07:31:06;851.03;;;802.07;;
9222;SDS011;7557;51.698;3.942;2024-02-21T07:33:33;850.90;;;802.20;;
9222;SDS011;7557;51.698;3.942;2024-02-21T07:36:05;888.07;;;835.00;;
9222;SDS011;7557;51.698;3.942;2024-02-21T07:38:33;856.97;;;807.87;;
9222;SDS011;7557;51.698;3.942;2024-02-21T07:41:01;872.17;;;819.87;;
9222;SDS011;7557;51.698;3.942;2024-02-21T07:43:29;854.57;;;803.37;;
9222;SDS011;7557;51.698;3.942;2024-02-21T07:45:56;778.97;;;734.33;;
9222;SDS011;7557;51.698;3.942;2024-02-21T07:48:24;840.93;;;789.90;;
9222;SDS011;7557;51.698;3.942;2024-02-21T07:50:51;907.67;;;852.17;;
9222;SDS011;7557;51.698;3.942;2024-02-21T07:53:21;908.73;;;847.87;;
9222;SDS011;7557;51.698;3.942;2024-02-21T07:55:48;797.87;;;754.63;;
9222;SDS011;7557;51.698;3.942;2024-02-21T07:58:16;879.50;;;828.60;;
9222;SDS011;7557;51.698;3.942;2024-02-21T08:00:43;877.23;;;824.53;;
9222;SDS011;7557;51.698;3.942;2024-02-21T08:03:11;835.73;;;790.20;;
9222;SDS011;7557;51.698;3.942;2024-02-21T08:05:40;827.03;;;781.50;;
9222;SDS011;7557;51.698;3.942;2024-02-21T08:08:08;859.17;;;806.10;;
9222;SDS011;7557;51.698;3.942;2024-02-21T08:10:37;812.03;;;768.00;;
9222;SDS011;7557;51.698;3.942;2024-02-21T08:13:06;778.90;;;737.87;;
9222;SDS011;7557;51.698;3.942;2024-02-21T08:15:34;742.37;;;701.83;;
9222;SDS011;7557;51.698;3.942;2024-02-21T08:18:04;860.53;;;805.67;;
9222;SDS011;7557;51.698;3.942;2024-02-21T08:20:32;831.70;;;786.67;;
9222;SDS011;7557;51.698;3.942;2024-02-21T08:22:59;794.23;;;752.40;;
9222;SDS011;7557;51.698;3.942;2024-02-21T08:25:27;766.70;;;725.93;;
9222;SDS011;7557;51.698;3.942;2024-02-21T08:27:57;780.90;;;740.43;;
9222;SDS011;7557;51.698;3.942;2024-02-21T08:30:26;784.43;;;743.87;;
9222;SDS011;7557;51.698;3.942;2024-02-21T08:32:53;774.27;;;734.83;;
9222;SDS011;7557;51.698;3.942;2024-02-21T08:35:23;776.40;;;733.73;;
9222;SDS011;7557;51.698;3.942;2024-02-21T08:37:51;791.27;;;749.70;;
9222;SDS011;7557;51.698;3.942;2024-02-21T08:40:19;765.50;;;727.20;;
9222;SDS011;7557;51.698;3.942;2024-02-21T08:42:46;766.70;;;727.43;;
9222;SDS011;7557;51.698;3.942;2024-02-21T08:45:16;708.30;;;673.17;;
9222;SDS011;7557;51.698;3.942;2024-02-21T08:47:43;715.90;;;679.97;;
9222;SDS011;7557;51.698;3.942;2024-02-21T08:50:11;702.63;;;669.90;;
9222;SDS011;7557;51.698;3.942;2024-02-21T08:52:38;776.07;;;734.97;;
9222;SDS011;7557;51.698;3.942;2024-02-21T08:55:06;741.67;;;706.67;;
9222;SDS011;7557;51.698;3.942;2024-02-21T08:57:34;696.37;;;662.17;;
9222;SDS011;7557;51.698;3.942;2024-02-21T09:00:06;728.80;;;692.17;;
9222;SDS011;7557;51.698;3.942;2024-02-21T09:02:39;728.23;;;690.30;;
9222;SDS011;7557;51.698;3.942;2024-02-21T09:05:08;670.70;;;640.07;;
9222;SDS011;7557;51.698;3.942;2024-02-21T09:07:35;677.00;;;646.17;;
9222;SDS011;7557;51.698;3.942;2024-02-21T09:10:06;677.77;;;647.00;;
9222;SDS011;7557;51.698;3.942;2024-02-21T09:12:34;669.50;;;640.10;;
9222;SDS011;7557;51.698;3.942;2024-02-21T09:15:02;668.77;;;638.50;;
9222;SDS011;7557;51.698;3.942;2024-02-21T09:17:36;675.87;;;644.40;;
9222;SDS011;7557;51.698;3.942;2024-02-21T09:20:05;756.10;;;715.13;;
9222;SDS011;7557;51.698;3.942;2024-02-21T09:22:35;672.10;;;642.83;;
9222;SDS011;7557;51.698;3.942;2024-02-21T09:25:08;725.20;;;684.73;;
9222;SDS011;7557;51.698;3.942;2024-02-21T09:27:37;693.37;;;660.17;;
9222;SDS011;7557;51.698;3.942;2024-02-21T09:30:05;648.53;;;619.70;;
9222;SDS011;7557;51.698;3.942;2024-02-21T09:32:34;640.13;;;612.53;;
9222;SDS011;7557;51.698;3.942;2024-02-21T09:35:04;683.70;;;652.40;;
9222;SDS011;7557;51.698;3.942;2024-02-21T09:37:32;642.03;;;613.10;;
9222;SDS011;7557;51.698;3.942;2024-02-21T09:39:59;633.47;;;605.97;;
9222;SDS011;7557;51.698;3.942;2024-02-21T09:42:28;662.13;;;632.20;;
9222;SDS011;7557;51.698;3.942;2024-02-21T09:45:01;646.53;;;616.73;;
9222;SDS011;7557;51.698;3.942;2024-02-21T09:47:39;627.20;;;599.83;;
9222;SDS011;7557;51.698;3.942;2024-02-21T09:50:12;582.87;;;559.17;;
9222;SDS011;7557;51.698;3.942;2024-02-21T09:52:41;603.63;;;578.87;;
9222;SDS011;7557;51.698;3.942;2024-02-21T09:55:11;615.57;;;589.50;;
9222;SDS011;7557;51.698;3.942;2024-02-21T09:57:39;602.27;;;575.60;;
9222;SDS011;7557;51.698;3.942;2024-02-21T10:00:08;613.97;;;587.07;;
9222;SDS011;7557;51.698;3.942;2024-02-21T10:02:36;599.87;;;574.93;;
9222;SDS011;7557;51.698;3.942;2024-02-21T10:05:05;584.90;;;560.00;;
9222;SDS011;7557;51.698;3.942;2024-02-21T10:07:35;621.13;;;594.97;;
9222;SDS011;7557;51.698;3.942;2024-02-21T10:10:04;600.73;;;574.53;;
9222;SDS011;7557;51.698;3.942;2024-02-21T10:12:32;662.33;;;631.27;;
9222;SDS011;7557;51.698;3.942;2024-02-21T10:15:00;737.03;;;700.53;;
9222;SDS011;7557;51.698;3.942;2024-02-21T10:17:28;696.63;;;661.30;;
9222;SDS011;7557;51.698;3.942;2024-02-21T10:20:06;617.57;;;591.83;;
9222;SDS011;7557;51.698;3.942;2024-02-21T10:22:37;603.83;;;578.10;;
9222;SDS011;7557;51.698;3.942;2024-02-21T10:25:08;602.23;;;576.53;;
9222;SDS011;7557;51.698;3.942;2024-02-21T10:27:36;608.23;;;581.00;;
9222;SDS011;7557;51.698;3.942;2024-02-21T10:30:04;640.37;;;608.50;;
9222;SDS011;7557;51.698;3.942;2024-02-21T10:32:33;575.13;;;551.23;;
9222;SDS011;7557;51.698;3.942;2024-02-21T10:35:01;641.57;;;611.30;;
9222;SDS011;7557;51.698;3.942;2024-02-21T10:37:34;582.90;;;558.40;;
9222;SDS011;7557;51.698;3.942;2024-02-21T10:40:03;638.00;;;603.63;;
9222;SDS011;7557;51.698;3.942;2024-02-21T10:42:33;574.07;;;543.70;;
9222;SDS011;7557;51.698;3.942;2024-02-21T10:45:05;547.40;;;524.93;;
9222;SDS011;7557;51.698;3.942;2024-02-21T10:47:35;517.10;;;495.60;;
9222;SDS011;7557;51.698;3.942;2024-02-21T10:50:07;546.17;;;522.77;;
9222;SDS011;7557;51.698;3.942;2024-02-21T10:52:43;560.60;;;537.73;;
9222;SDS011;7557;51.698;3.942;2024-02-21T10:55:20;751.07;;;703.77;;
9222;SDS011;7557;51.698;3.942;2024-02-21T10:57:53;567.63;;;538.97;;
9222;SDS011;7557;51.698;3.942;2024-02-21T11:00:22;477.47;;;459.00;;
9222;SDS011;7557;51.698;3.942;2024-02-21T11:02:55;485.50;;;466.03;;
9222;SDS011;7557;51.698;3.942;2024-02-21T11:05:28;457.97;;;439.50;;
9222;SDS011;7557;51.698;3.942;2024-02-21T11:07:59;597.60;;;568.33;;
9222;SDS011;7557;51.698;3.942;2024-02-21T11:10:27;508.63;;;488.53;;
9222;SDS011;7557;51.698;3.942;2024-02-21T11:13:04;532.47;;;508.73;;
9222;SDS011;7557;51.698;3.942;2024-02-21T11:15:34;438.53;;;421.93;;
9222;SDS011;7557;51.698;3.942;2024-02-21T11:18:01;434.07;;;417.13;;
9222;SDS011;7557;51.698;3.942;2024-02-21T11:20:32;528.35;;;505.08;;
9222;SDS011;7557;51.698;3.942;2024-02-21T11:23:02;460.20;;;441.53;;
9222;SDS011;7557;51.698;3.942;2024-02-21T11:25:30;477.37;;;458.00;;
9222;SDS011;7557;51.698;3.942;2024-02-21T11:27:59;416.60;;;400.20;;
9222;SDS011;7557;51.698;3.942;2024-02-21T11:30:27;417.53;;;401.17;;
9222;SDS011;7557;51.698;3.942;2024-02-21T11:33:06;447.63;;;430.67;;
9222;SDS011;7557;51.698;3.942;2024-02-21T11:35:38;448.37;;;431.03;;
9222;SDS011;7557;51.698;3.942;2024-02-21T11:38:11;467.03;;;449.73;;
9222;SDS011;7557;51.698;3.942;2024-02-21T11:40:41;463.43;;;444.00;;
9222;SDS011;7557;51.698;3.942;2024-02-21T11:43:11;496.27;;;471.80;;
9222;SDS011;7557;51.698;3.942;2024-02-21T11:45:38;445.57;;;428.40;;
9222;SDS011;7557;51.698;3.942;2024-02-21T11:48:08;469.00;;;450.63;;
9222;SDS011;7557;51.698;3.942;2024-02-21T11:50:36;374.77;;;361.47;;
9222;SDS011;7557;51.698;3.942;2024-02-21T11:53:05;517.00;;;494.23;;
9222;SDS011;7557;51.698;3.942;2024-02-21T11:55:34;538.17;;;512.73;;
9222;SDS011;7557;51.698;3.942;2024-02-21T11:58:01;547.87;;;522.57;;
9222;SDS011;7557;51.698;3.942;2024-02-21T12:00:29;462.00;;;442.70;;
9222;SDS011;7557;51.698;3.942;2024-02-21T12:02:58;525.77;;;501.47;;
9222;SDS011;7557;51.698;3.942;2024-02-21T12:05:27;503.90;;;483.40;;
9222;SDS011;7557;51.698;3.942;2024-02-21T12:07:56;550.90;;;520.00;;
9222;SDS011;7557;51.698;3.942;2024-02-21T12:10:24;545.73;;;522.80;;
9222;SDS011;7557;51.698;3.942;2024-02-21T12:13:04;574.13;;;549.57;;
9222;SDS011;7557;51.698;3.942;2024-02-21T12:15:32;490.13;;;470.77;;
9222;SDS011;7557;51.698;3.942;2024-02-21T12:18:00;458.87;;;441.37;;
9222;SDS011;7557;51.698;3.942;2024-02-21T12:20:27;437.27;;;420.47;;
9222;SDS011;7557;51.698;3.942;2024-02-21T12:22:56;549.17;;;523.73;;
9222;SDS011;7557;51.698;3.942;2024-02-21T12:25:27;508.83;;;486.83;;
9222;SDS011;7557;51.698;3.942;2024-02-21T12:27:57;630.53;;;595.67;;
9222;SDS011;7557;51.698;3.942;2024-02-21T12:30:26;450.30;;;433.47;;
9222;SDS011;7557;51.698;3.942;2024-02-21T12:32:53;510.23;;;487.77;;
9222;SDS011;7557;51.698;3.942;2024-02-21T12:35:23;463.80;;;445.57;;
9222;SDS011;7557;51.698;3.942;2024-02-21T12:37:52;444.33;;;427.13;;
9222;SDS011;7557;51.698;3.942;2024-02-21T12:40:20;465.30;;;447.43;;
9222;SDS011;7557;51.698;3.942;2024-02-21T12:42:47;459.50;;;441.77;;
9222;SDS011;7557;51.698;3.942;2024-02-21T12:45:16;487.00;;;467.37;;
9222;SDS011;7557;51.698;3.942;2024-02-21T12:47:44;482.53;;;462.30;;
9222;SDS011;7557;51.698;3.942;2024-02-21T12:50:15;495.50;;;475.67;;
9222;SDS011;7557;51.698;3.942;2024-02-21T12:52:44;544.30;;;521.60;;
9222;SDS011;7557;51.698;3.942;2024-02-21T12:55:12;483.10;;;463.47;;
9222;SDS011;7557;51.698;3.942;2024-02-21T12:57:40;478.93;;;460.43;;
9222;SDS011;7557;51.698;3.942;2024-02-21T13:00:08;488.93;;;467.93;;
9222;SDS011;7557;51.698;3.942;2024-02-21T13:02:38;579.30;;;551.67;;
9222;SDS011;7557;51.698;3.942;2024-02-21T13:05:06;430.00;;;414.07;;
9222;SDS011;7557;51.698;3.942;2024-02-21T13:07:34;519.03;;;496.07;;
9222;SDS011;7557;51.698;3.942;2024-02-21T13:10:01;518.90;;;498.53;;
9222;SDS011;7557;51.698;3.942;2024-02-21T13:12:30;494.93;;;472.87;;
9222;SDS011;7557;51.698;3.942;2024-02-21T13:14:58;459.80;;;442.63;;
9222;SDS011;7557;51.698;3.942;2024-02-21T13:17:25;624.90;;;596.60;;
9222;SDS011;7557;51.698;3.942;2024-02-21T13:19:57;526.73;;;502.53;;
9222;SDS011;7557;51.698;3.942;2024-02-21T13:22:24;518.03;;;496.13;;
9222;SDS011;7557;51.698;3.942;2024-02-21T13:24:52;519.90;;;497.57;;
9222;SDS011;7557;51.698;3.942;2024-02-21T13:27:19;591.03;;;562.60;;
9222;SDS011;7557;51.698;3.942;2024-02-21T13:29:47;589.57;;;562.73;;
9222;SDS011;7557;51.698;3.942;2024-02-21T13:32:14;591.90;;;565.80;;
9222;SDS011;7557;51.698;3.942;2024-02-21T13:34:43;694.50;;;627.63;;
9222;SDS011;7557;51.698;3.942;2024-02-21T13:37:12;619.50;;;590.87;;
9222;SDS011;7557;51.698;3.942;2024-02-21T13:39:40;621.83;;;590.47;;
9222;SDS011;7557;51.698;3.942;2024-02-21T13:42:07;736.93;;;696.93;;
9222;SDS011;7557;51.698;3.942;2024-02-21T13:44:35;597.77;;;570.73;;
9222;SDS011;7557;51.698;3.942;2024-02-21T13:47:03;752.50;;;701.80;;
9222;SDS011;7557;51.698;3.942;2024-02-21T13:49:33;603.40;;;574.43;;
9222;SDS011;7557;51.698;3.942;2024-02-21T13:52:00;596.53;;;571.37;;
9222;SDS011;7557;51.698;3.942;2024-02-21T13:54:29;630.07;;;597.00;;
9222;SDS011;7557;51.698;3.942;2024-02-21T13:56:57;671.33;;;635.90;;
9222;SDS011;7557;51.698;3.942;2024-02-21T13:59:25;718.10;;;673.57;;
9222;SDS011;7557;51.698;3.942;2024-02-21T14:01:52;715.80;;;679.90;;
9222;SDS011;7557;51.698;3.942;2024-02-21T14:04:20;701.53;;;665.83;;
9222;SDS011;7557;51.698;3.942;2024-02-21T14:06:48;845.37;;;780.60;;
9222;SDS011;7557;51.698;3.942;2024-02-21T14:09:15;917.47;;;820.10;;
9222;SDS011;7557;51.698;3.942;2024-02-21T14:11:44;801.57;;;751.33;;
9222;SDS011;7557;51.698;3.942;2024-02-21T14:14:12;849.57;;;796.60;;
9222;SDS011;7557;51.698;3.942;2024-02-21T14:16:40;703.70;;;668.80;;
9222;SDS011;7557;51.698;3.942;2024-02-21T14:19:07;783.60;;;740.57;;
9222;SDS011;7557;51.698;3.942;2024-02-21T14:21:37;725.50;;;690.27;;
9222;SDS011;7557;51.698;3.942;2024-02-21T14:24:04;723.93;;;686.60;;
9222;SDS011;7557;51.698;3.942;2024-02-21T14:26:35;716.23;;;680.47;;
9222;SDS011;7557;51.698;3.942;2024-02-21T14:29:04;745.27;;;706.27;;